createdAt,value
2023-04-03T00:01:09.585Z,99237.34
2023-04-03T00:03:36.730Z,99234.22
2023-04-03T00:06:04.874Z,99238.47
2023-04-03T00:08:32.149Z,99234.16
2023-04-03T00:10:59.514Z,99231.94
2023-04-03T00:13:26.671Z,99239.31
2023-04-03T00:15:53.995Z,99239.69
2023-04-03T00:18:21.176Z,99235.56
2023-04-03T00:20:48.732Z,99233.28
2023-04-03T00:23:16.052Z,99238.16
2023-04-03T00:25:43.272Z,99244.91
2023-04-03T00:28:11.138Z,99243.63
2023-04-03T00:30:38.625Z,99236.72
2023-04-03T00:33:06.084Z,99240.53
2023-04-03T00:35:35.124Z,99239.88
2023-04-03T00:38:02.302Z,99237.97
2023-04-03T00:40:42.696Z,99238.34
2023-04-03T00:43:25.459Z,99227.78
2023-04-03T00:45:54.210Z,99244.34
2023-04-03T00:48:25.763Z,99247.13
2023-04-03T00:50:53.806Z,99247.41
2023-04-03T00:53:26.865Z,99243.19
2023-04-03T00:55:56.875Z,99243.47
2023-04-03T00:58:33.168Z,99245.69
2023-04-03T01:01:06.383Z,99250.81
2023-04-03T01:03:33.914Z,99246.06
2023-04-03T01:06:04.220Z,99247.06
2023-04-03T01:08:31.600Z,99236.56
2023-04-03T01:10:58.864Z,99242.66
2023-04-03T01:13:30.585Z,99235.22
2023-04-03T01:16:01.324Z,99238.94
2023-04-03T01:18:28.648Z,99243.94
2023-04-03T01:21:33.254Z,99242.44
2023-04-03T01:24:18.244Z,99241.47
2023-04-03T01:26:46.178Z,99244.66
2023-04-03T01:29:13.259Z,99246.72
2023-04-03T01:31:54.154Z,99251.59
2023-04-03T01:34:21.839Z,99251.59
2023-04-03T01:36:50.414Z,99244.13
2023-04-03T01:39:18.420Z,99243.66
2023-04-03T01:41:46.064Z,99242.75
2023-04-03T01:44:19.274Z,99249.28
2023-04-03T01:46:46.511Z,99249.06
2023-04-03T01:49:13.502Z,99246.31
2023-04-03T01:51:40.664Z,99248.97
2023-04-03T01:54:07.703Z,99243.34
2023-04-03T01:56:34.809Z,99248.06
2023-04-03T01:59:01.868Z,99250.38
2023-04-03T02:01:29.506Z,99248.31
2023-04-03T02:03:56.728Z,99248.88
2023-04-03T02:06:23.858Z,99242.38
2023-04-03T02:08:51.809Z,99244.00
2023-04-03T02:11:18.792Z,99241.53
2023-04-03T02:13:45.925Z,99244.94
2023-04-03T02:16:14.210Z,99245.47
2023-04-03T02:18:42.417Z,99250.28
2023-04-03T02:21:09.611Z,99245.75
2023-04-03T02:23:38.048Z,99243.09
2023-04-03T02:26:07.494Z,99244.09
2023-04-03T02:28:35.266Z,99252.09
2023-04-03T02:31:03.498Z,99247.97
2023-04-03T02:33:32.014Z,99256.44
2023-04-03T02:36:00.800Z,99256.50
2023-04-03T02:38:28.106Z,99242.50
2023-04-03T02:41:01.438Z,99256.50
2023-04-03T02:43:29.359Z,99254.66
2023-04-03T02:45:56.435Z,99257.16
2023-04-03T02:48:24.237Z,99256.34
2023-04-03T02:50:51.441Z,99258.50
2023-04-03T02:53:19.419Z,99250.75
2023-04-03T02:55:46.995Z,99256.94
2023-04-03T02:58:13.976Z,99263.28
2023-04-03T03:00:41.075Z,99259.69
2023-04-03T03:03:08.861Z,99267.09
2023-04-03T03:05:36.113Z,99264.19
2023-04-03T03:08:03.477Z,99264.53
2023-04-03T03:10:30.507Z,99262.22
2023-04-03T03:12:57.702Z,99271.28
2023-04-03T03:15:24.716Z,99271.28
2023-04-03T03:17:51.847Z,99268.63
2023-04-03T03:20:18.973Z,99271.97
2023-04-03T03:22:45.963Z,99269.97
2023-04-03T03:25:12.961Z,99267.81
2023-04-03T03:27:40.867Z,99264.06
2023-04-03T03:30:08.674Z,99262.34
2023-04-03T03:32:36.055Z,99271.22
2023-04-03T03:35:03.181Z,99266.97
2023-04-03T03:37:30.641Z,99273.06
2023-04-03T03:39:57.694Z,99276.03
2023-04-03T03:42:24.815Z,99268.16
2023-04-03T03:44:52.923Z,99263.13
2023-04-03T03:47:21.330Z,99263.56
2023-04-03T03:49:48.917Z,99267.47
2023-04-03T03:52:17.099Z,99270.75
2023-04-03T03:54:44.364Z,99265.72
2023-04-03T03:57:11.966Z,99266.75
2023-04-03T03:59:39.305Z,99261.88
2023-04-03T04:02:06.440Z,99266.81
2023-04-03T04:04:33.503Z,99268.09
2023-04-03T04:07:01.685Z,99268.59
2023-04-03T04:09:29.311Z,99278.25
2023-04-03T04:11:56.605Z,99274.56
2023-04-03T04:14:23.681Z,99271.00
2023-04-03T04:16:52.151Z,99270.44
2023-04-03T04:19:23.865Z,99277.09
2023-04-03T04:21:51.298Z,99282.59
2023-04-03T04:24:20.661Z,99283.31
2023-04-03T04:26:49.976Z,99277.25
2023-04-03T04:29:18.174Z,99289.94
2023-04-03T04:31:48.205Z,99288.28
2023-04-03T04:34:15.379Z,99292.34
2023-04-03T04:36:43.382Z,99289.38
2023-04-03T04:39:10.860Z,99283.69
2023-04-03T04:41:38.759Z,99292.44
2023-04-03T04:44:06.700Z,99287.50
2023-04-03T04:46:34.554Z,99292.00
2023-04-03T04:49:02.588Z,99291.84
2023-04-03T04:51:41.170Z,99284.44
2023-04-03T04:54:17.779Z,99291.50
2023-04-03T04:56:47.155Z,99290.66
2023-04-03T04:59:14.281Z,99293.25
2023-04-03T05:01:41.600Z,99296.09
2023-04-03T05:04:13.982Z,99292.03
2023-04-03T05:06:41.506Z,99295.25
2023-04-03T05:09:14.086Z,99286.13
2023-04-03T05:11:44.181Z,99286.69
2023-04-03T05:14:13.523Z,99290.41
2023-04-03T05:16:40.754Z,99287.28
2023-04-03T05:19:08.030Z,99289.50
2023-04-03T05:21:35.552Z,99287.31
2023-04-03T05:24:10.412Z,99292.50
2023-04-03T05:26:41.571Z,99294.53
2023-04-03T05:29:09.329Z,99284.38
2023-04-03T05:31:36.661Z,99287.78
2023-04-03T05:34:04.204Z,99283.31
2023-04-03T05:36:34.108Z,99295.75
2023-04-03T05:39:05.373Z,99295.94
2023-04-03T05:41:33.964Z,99310.88
2023-04-03T05:44:01.550Z,99299.00
2023-04-03T05:46:28.707Z,99300.56
2023-04-03T05:48:57.731Z,99305.53
2023-04-03T05:51:38.099Z,99299.81
2023-04-03T05:54:25.444Z,99308.28
2023-04-03T05:56:57.197Z,99308.72
2023-04-03T05:59:25.257Z,99313.53
2023-04-03T06:01:55.452Z,99313.75
2023-04-03T06:04:25.851Z,99325.78
2023-04-03T06:06:56.211Z,99317.50
2023-04-03T06:09:27.436Z,99327.47
2023-04-03T06:11:54.929Z,99334.94
2023-04-03T06:14:24.511Z,99334.47
2023-04-03T06:16:51.682Z,99336.47
2023-04-03T06:19:19.373Z,99333.06
2023-04-03T06:21:51.604Z,99334.06
2023-04-03T06:24:21.083Z,99328.19
2023-04-03T06:26:48.704Z,99328.31
2023-04-03T06:29:15.741Z,99326.94
2023-04-03T06:31:42.879Z,99322.50
2023-04-03T06:34:10.109Z,99325.19
2023-04-03T06:36:37.168Z,99321.63
2023-04-03T06:39:04.727Z,99321.47
2023-04-03T06:41:32.413Z,99328.63
2023-04-03T06:43:59.832Z,99328.56
2023-04-03T06:46:28.296Z,99328.94
2023-04-03T06:48:55.482Z,99329.53
2023-04-03T06:51:25.856Z,99331.72
2023-04-03T06:53:54.780Z,99336.53
2023-04-03T06:56:22.504Z,99326.03
2023-04-03T06:58:49.506Z,99321.84
2023-04-03T07:01:18.874Z,99327.72
2023-04-03T07:03:47.574Z,99332.81
2023-04-03T07:06:16.646Z,99325.88
2023-04-03T07:08:44.854Z,99330.50
2023-04-03T07:11:13.166Z,99331.66
2023-04-03T07:13:40.433Z,99326.31
2023-04-03T07:16:08.204Z,99328.88
2023-04-03T07:18:35.294Z,99321.53
2023-04-03T07:21:03.190Z,99323.38
2023-04-03T07:23:30.844Z,99332.06
2023-04-03T07:25:57.841Z,99336.47
2023-04-03T07:28:25.470Z,99328.31
2023-04-03T07:31:00.784Z,99332.31
2023-04-03T07:33:27.941Z,99328.75
2023-04-03T07:35:55.666Z,99338.09
2023-04-03T07:38:22.844Z,99328.84
2023-04-03T07:40:51.709Z,99337.66
2023-04-03T07:43:19.876Z,99338.06
2023-04-03T07:45:50.751Z,99341.00
2023-04-03T07:48:19.848Z,99334.06
2023-04-03T07:50:47.483Z,99339.41
2023-04-03T07:53:15.018Z,99336.53
2023-04-03T07:55:45.609Z,99333.78
2023-04-03T07:58:16.003Z,99333.63
2023-04-03T08:00:43.150Z,99325.66
2023-04-03T08:03:12.898Z,99327.59
2023-04-03T08:05:42.414Z,99334.00
2023-04-03T08:08:12.118Z,99349.13
2023-04-03T08:10:39.313Z,99339.47
2023-04-03T08:13:07.096Z,99340.47
2023-04-03T08:15:34.354Z,99343.38
2023-04-03T08:18:02.074Z,99344.38
2023-04-03T08:20:29.510Z,99333.78
2023-04-03T08:22:56.776Z,99332.59
2023-04-03T08:25:23.898Z,99344.47
2023-04-03T08:27:50.873Z,99341.63
2023-04-03T08:30:18.568Z,99340.88
2023-04-03T08:32:46.014Z,99338.94
2023-04-03T08:35:13.321Z,99340.69
2023-04-03T08:37:41.040Z,99347.16
2023-04-03T08:40:14.525Z,99350.22
2023-04-03T08:42:54.819Z,99349.94
2023-04-03T08:45:51.372Z,99349.03
2023-04-03T08:48:24.247Z,99348.25
2023-04-03T08:51:03.226Z,99360.56
2023-04-03T08:53:34.921Z,99363.88
2023-04-03T08:56:09.393Z,99362.25
2023-04-03T08:58:50.297Z,99357.41
2023-04-03T09:01:34.542Z,99365.22
2023-04-03T09:04:15.030Z,99370.63
2023-04-03T09:06:47.372Z,99369.19
2023-04-03T09:09:31.838Z,99371.66
2023-04-03T09:12:10.495Z,99376.22
2023-04-03T09:14:44.838Z,99373.00
2023-04-03T09:18:07.280Z,99377.06
2023-04-03T09:20:46.897Z,99378.25
2023-04-03T09:23:25.850Z,99370.31
2023-04-03T09:25:57.934Z,99379.00
2023-04-03T09:28:24.967Z,99368.00
2023-04-03T09:30:52.024Z,99373.59
2023-04-03T09:33:19.894Z,99375.41
2023-04-03T09:35:49.074Z,99370.88
2023-04-03T09:38:20.419Z,99381.25
2023-04-03T09:40:52.812Z,99376.47
2023-04-03T09:43:25.749Z,99381.84
2023-04-03T09:45:53.936Z,99380.88
2023-04-03T09:48:29.966Z,99378.00
2023-04-03T09:51:00.437Z,99379.50
2023-04-03T09:53:38.496Z,99382.59
2023-04-03T09:56:17.728Z,99381.47
2023-04-03T09:58:51.069Z,99388.28
2023-04-03T10:01:31.647Z,99387.78
2023-04-03T10:04:12.306Z,99383.94
2023-04-03T10:06:54.339Z,99378.25
2023-04-03T10:09:27.622Z,99380.34
2023-04-03T10:12:08.374Z,99386.06
2023-04-03T10:14:54.652Z,99388.97
2023-04-03T10:17:52.601Z,99380.78
2023-04-03T10:20:38.721Z,99384.59
2023-04-03T10:23:45.413Z,99380.13
2023-04-03T10:26:36.743Z,99392.47
2023-04-03T10:29:09.518Z,99386.72
2023-04-03T10:32:03.534Z,99392.53
2023-04-03T10:34:36.741Z,99400.56
2023-04-03T10:37:27.631Z,99388.75
2023-04-03T10:39:58.375Z,99390.97
2023-04-03T10:42:47.768Z,99391.66
2023-04-03T10:45:29.264Z,99390.56
2023-04-03T10:47:59.304Z,99392.72
2023-04-03T10:51:01.995Z,99405.59
2023-04-03T10:53:51.416Z,99390.47
2023-04-03T10:56:27.823Z,99395.94
2023-04-03T10:59:05.521Z,99387.91
2023-04-03T11:01:38.069Z,99394.81
2023-04-03T11:04:07.330Z,99392.66
2023-04-03T11:06:44.617Z,99391.56
2023-04-03T11:09:28.000Z,99378.38
2023-04-03T11:12:03.061Z,99379.13
2023-04-03T11:14:35.851Z,99391.06
2023-04-03T11:17:13.075Z,99386.69
2023-04-03T11:19:47.353Z,99384.72
2023-04-03T11:22:38.628Z,99381.84
2023-04-03T11:25:26.590Z,99383.47
2023-04-03T11:27:57.769Z,99382.22
2023-04-03T11:30:43.718Z,99379.78
2023-04-03T11:33:11.311Z,99378.88
2023-04-03T11:35:43.735Z,99379.78
2023-04-03T11:38:20.019Z,99380.59
2023-04-03T11:40:48.673Z,99376.00
2023-04-03T11:43:23.359Z,99373.03
2023-04-03T11:45:54.100Z,99377.19
2023-04-03T11:48:30.712Z,99382.00
2023-04-03T11:51:02.033Z,99379.06
2023-04-03T11:53:40.270Z,99380.13
2023-04-03T11:56:25.648Z,99378.63
2023-04-03T11:59:19.425Z,99381.94
2023-04-03T12:01:57.704Z,99376.38
2023-04-03T12:04:28.005Z,99381.22
2023-04-03T12:07:12.782Z,99379.88
2023-04-03T12:09:43.217Z,99383.13
2023-04-03T12:12:29.540Z,99378.91
2023-04-03T12:14:56.693Z,99374.53
2023-04-03T12:17:27.971Z,99374.09
2023-04-03T12:19:55.102Z,99378.19
2023-04-03T12:22:23.178Z,99374.94
2023-04-03T12:24:52.885Z,99381.13
2023-04-03T12:27:24.437Z,99383.56
2023-04-03T12:29:54.211Z,99385.44
2023-04-03T12:32:49.474Z,99382.47
2023-04-03T12:35:38.246Z,99382.75
2023-04-03T12:38:38.612Z,99385.50
2023-04-03T12:41:27.074Z,99386.75
2023-04-03T12:44:16.551Z,99385.31
2023-04-03T12:46:52.517Z,99391.69
2023-04-03T12:49:25.847Z,99386.75
2023-04-03T12:51:53.336Z,99388.84
2023-04-03T12:54:27.179Z,99399.84
2023-04-03T12:57:13.782Z,99402.94
2023-04-03T12:59:41.942Z,99388.66
2023-04-03T13:02:23.680Z,99398.38
2023-04-03T13:04:52.674Z,99397.16
2023-04-03T13:07:35.896Z,99389.09
2023-04-03T13:10:08.928Z,99395.72
2023-04-03T13:12:46.345Z,99395.94
2023-04-03T13:15:20.629Z,99396.53
2023-04-03T13:17:51.155Z,99395.28
2023-04-03T13:20:34.880Z,99398.81
2023-04-03T13:23:12.424Z,99400.03
2023-04-03T13:25:44.483Z,99401.91
2023-04-03T13:28:14.635Z,99404.56
2023-04-03T13:30:55.058Z,99403.09
2023-04-03T13:33:26.987Z,99398.56
2023-04-03T13:36:02.431Z,99393.81
2023-04-03T13:38:35.102Z,99395.88
2023-04-03T13:44:22.386Z,99399.44
2023-04-03T13:47:16.424Z,99393.44
2023-04-03T13:49:47.233Z,99401.44
2023-04-03T13:52:37.084Z,99395.44
2023-04-03T13:55:38.431Z,99399.19
2023-04-03T13:58:08.672Z,99399.00
2023-04-03T14:00:38.801Z,99398.81
2023-04-03T14:03:20.278Z,99397.34
2023-04-03T14:05:47.582Z,99400.66
2023-04-03T14:08:14.963Z,99401.72
2023-04-03T14:10:43.053Z,99391.16
2023-04-03T14:13:16.905Z,99393.44
2023-04-03T14:15:44.622Z,99395.50
2023-04-03T14:18:14.383Z,99397.97
2023-04-03T14:20:41.635Z,99396.53
2023-04-03T14:23:09.470Z,99401.72
2023-04-03T14:25:38.685Z,99399.00
2023-04-03T14:28:21.964Z,99396.13
2023-04-03T14:30:51.724Z,99395.91
2023-04-03T14:33:23.710Z,99400.06
2023-04-03T14:35:51.104Z,99397.97
2023-04-03T14:38:36.335Z,99403.78
2023-04-03T14:41:14.007Z,99395.91
2023-04-03T14:43:43.769Z,99399.03
2023-04-03T14:46:17.689Z,99400.06
2023-04-03T14:48:45.572Z,99403.97
2023-04-03T14:51:14.865Z,99397.56
2023-04-03T14:53:43.541Z,99398.19
2023-04-03T14:56:20.107Z,99400.88
2023-04-03T14:58:50.481Z,99395.50
2023-04-03T15:01:19.187Z,99398.38
2023-04-03T15:03:46.433Z,99401.72
2023-04-03T15:06:15.559Z,99396.34
2023-04-03T15:08:44.641Z,99388.91
2023-04-03T15:11:12.547Z,99395.50
2023-04-03T15:13:40.837Z,99391.78
2023-04-03T15:16:16.934Z,99396.13
2023-04-03T15:18:44.963Z,99402.72
2023-04-03T15:21:12.131Z,99404.41
2023-04-03T15:23:39.141Z,99404.59
2023-04-03T15:26:07.124Z,99395.06
2023-04-03T15:28:37.519Z,99399.22
2023-04-03T15:31:05.587Z,99390.53
2023-04-03T15:33:34.397Z,99400.84
2023-04-03T15:36:06.911Z,99394.41
2023-04-03T15:38:35.279Z,99394.63
2023-04-03T15:41:02.902Z,99403.31
2023-04-03T15:43:30.024Z,99391.53
2023-04-03T15:46:00.767Z,99400.00
2023-04-03T15:48:29.401Z,99387.63
2023-04-03T15:50:57.770Z,99402.88
2023-04-03T15:53:26.191Z,99403.28
2023-04-03T15:55:53.300Z,99400.00
2023-04-03T15:58:20.351Z,99397.91
2023-04-03T16:00:47.526Z,99407.41
2023-04-03T16:03:18.877Z,99404.94
2023-04-03T16:05:46.427Z,99411.56
2023-04-03T16:08:13.808Z,99402.66
2023-04-03T16:10:41.693Z,99407.59
2023-04-03T16:13:08.746Z,99405.72
2023-04-03T16:15:36.841Z,99408.63
2023-04-03T16:18:04.795Z,99414.41
2023-04-03T16:20:32.769Z,99413.19
2023-04-03T16:23:01.169Z,99418.56
2023-04-03T16:25:28.925Z,99414.66
2023-04-03T16:27:55.996Z,99422.31
2023-04-03T16:30:23.218Z,99421.47
2023-04-03T16:32:50.406Z,99418.78
2023-04-03T16:35:17.589Z,99426.84
2023-04-03T16:37:44.644Z,99432.22
2023-04-03T16:40:13.436Z,99427.03
2023-04-03T16:42:40.697Z,99435.91
2023-04-03T16:45:08.606Z,99427.03
2023-04-03T16:47:35.874Z,99438.81
2023-04-03T16:50:03.395Z,99438.81
2023-04-03T16:52:30.569Z,99446.88
2023-04-03T16:54:59.941Z,99437.78
2023-04-03T16:57:27.453Z,99440.44
2023-04-03T16:59:55.058Z,99445.00
2023-04-03T17:02:27.970Z,99446.84
2023-04-03T17:04:55.483Z,99448.06
2023-04-03T17:07:24.646Z,99451.97
2023-04-03T17:09:52.651Z,99447.19
2023-04-03T17:12:19.831Z,99452.38
2023-04-03T17:14:47.931Z,99454.81
2023-04-03T17:17:15.724Z,99448.63
2023-04-03T17:19:44.183Z,99453.59
2023-04-03T17:22:11.541Z,99454.38
2023-04-03T17:24:38.568Z,99453.97
2023-04-03T17:27:05.928Z,99463.63
2023-04-03T17:29:33.229Z,99463.41
2023-04-03T17:32:00.305Z,99458.25
2023-04-03T17:34:27.566Z,99458.03
2023-04-03T17:36:54.597Z,99457.63
2023-04-03T17:39:21.806Z,99453.91
2023-04-03T17:41:49.740Z,99452.25
2023-04-03T17:44:16.986Z,99455.34
2023-04-03T17:46:44.059Z,99463.78
2023-04-03T17:49:15.053Z,99459.63
2023-04-03T17:51:42.700Z,99459.84
2023-04-03T17:54:10.076Z,99459.41
2023-04-03T17:56:37.117Z,99461.44
2023-04-03T17:59:04.340Z,99454.44
2023-04-03T18:01:34.214Z,99461.44
2023-04-03T18:04:04.759Z,99460.19
2023-04-03T18:06:44.728Z,99456.28
2023-04-03T18:09:16.904Z,99459.78
2023-04-03T18:11:46.342Z,99460.41
2023-04-03T18:14:19.834Z,99458.09
2023-04-03T18:16:47.109Z,99461.44
2023-04-03T18:19:22.108Z,99464.13
2023-04-03T18:21:55.216Z,99457.13
2023-04-03T18:24:23.876Z,99455.91
2023-04-03T18:26:58.903Z,99459.41
2023-04-03T18:29:28.798Z,99460.00
2023-04-03T18:31:56.699Z,99459.63
2023-04-03T18:34:23.731Z,99454.66
2023-04-03T18:36:52.580Z,99457.97
2023-04-03T18:39:19.839Z,99463.34
2023-04-03T18:41:47.334Z,99460.66
2023-04-03T18:44:19.290Z,99464.16
2023-04-03T18:46:46.888Z,99457.56
2023-04-03T18:49:15.280Z,99459.84
2023-04-03T18:51:42.355Z,99455.94
2023-04-03T18:54:10.198Z,99456.31
2023-04-03T18:56:38.349Z,99464.13
2023-04-03T18:59:05.947Z,99466.13
2023-04-03T19:01:34.549Z,99465.66
2023-04-03T19:04:02.134Z,99461.91
2023-04-03T19:06:29.291Z,99472.59
2023-04-03T19:08:56.550Z,99458.06
2023-04-03T19:11:23.706Z,99456.72
2023-04-03T19:14:10.608Z,99458.75
2023-04-03T19:16:38.155Z,99460.97
2023-04-03T19:19:05.621Z,99466.31
2023-04-03T19:21:33.150Z,99459.53
2023-04-03T19:24:00.419Z,99468.34
2023-04-03T19:26:27.646Z,99460.31
2023-04-03T19:28:54.719Z,99457.63
2023-04-03T19:31:22.093Z,99457.25
2023-04-03T19:33:50.384Z,99453.53
2023-04-03T19:36:18.323Z,99446.78
2023-04-03T19:38:45.447Z,99448.81
2023-04-03T19:41:19.091Z,99453.34
2023-04-03T19:43:46.629Z,99448.22
2023-04-03T19:46:13.857Z,99450.06
2023-04-03T19:48:40.884Z,99456.47
2023-04-03T19:51:08.945Z,99449.06
2023-04-03T19:53:36.394Z,99457.94
2023-04-03T19:56:03.648Z,99456.22
2023-04-03T19:58:30.899Z,99455.38
2023-04-03T20:00:59.024Z,99453.34
2023-04-03T20:03:27.381Z,99449.84
2023-04-03T20:05:55.065Z,99438.88
2023-04-03T20:08:22.037Z,99442.25
2023-04-03T20:10:49.182Z,99436.06
2023-04-03T20:13:16.244Z,99439.34
2023-04-03T20:15:44.998Z,99437.97
2023-04-03T20:18:19.000Z,99446.00
2023-04-03T20:20:57.814Z,99440.25
2023-04-03T20:23:26.061Z,99444.16
2023-04-03T20:26:08.504Z,99445.81
2023-04-03T20:28:38.795Z,99444.97
2023-04-03T20:31:06.827Z,99446.84
2023-04-03T20:33:34.083Z,99443.06
2023-04-03T20:36:02.687Z,99445.94
2023-04-03T20:38:30.102Z,99440.53
2023-04-03T20:40:57.127Z,99430.25
2023-04-03T20:43:24.177Z,99439.13
2023-04-03T20:45:51.711Z,99435.22
2023-04-03T20:48:18.854Z,99429.03
2023-04-03T20:50:46.880Z,99427.78
2023-04-03T20:53:18.044Z,99426.13
2023-04-03T20:56:01.072Z,99421.19
2023-04-03T20:58:30.820Z,99422.84
2023-04-03T21:00:58.039Z,99425.09
2023-04-03T21:03:27.721Z,99417.03
2023-04-03T21:06:00.796Z,99419.72
2023-04-03T21:09:05.615Z,99415.31
2023-04-03T21:12:10.562Z,99417.44
2023-04-03T21:15:15.383Z,99416.63
2023-04-03T21:18:18.293Z,99416.78
2023-04-03T21:20:47.788Z,99417.81
2023-04-03T21:23:15.990Z,99416.78
2023-04-03T21:25:43.256Z,99419.25
2023-04-03T21:28:10.331Z,99413.41
2023-04-03T21:30:37.342Z,99423.31
2023-04-03T21:33:04.551Z,99419.00
2023-04-03T21:35:31.835Z,99419.00
2023-04-03T21:37:59.491Z,99423.47
2023-04-03T21:40:27.417Z,99420.16
2023-04-03T21:42:55.174Z,99423.47
2023-04-03T21:45:22.723Z,99424.25
2023-04-03T21:47:49.835Z,99413.53
2023-04-03T21:50:17.378Z,99420.28
2023-04-03T21:52:44.432Z,99411.63
2023-04-03T21:55:11.515Z,99414.72
2023-04-03T21:57:39.831Z,99412.22
2023-04-03T22:00:11.015Z,99414.47
2023-04-03T22:02:41.614Z,99411.63
2023-04-03T22:05:08.760Z,99404.19
2023-04-03T22:07:35.905Z,99404.66
2023-04-03T22:10:02.972Z,99406.97
2023-04-03T22:12:30.869Z,99402.44
2023-04-03T22:14:57.921Z,99400.56
2023-04-03T22:17:24.921Z,99392.53
2023-04-03T22:19:51.906Z,99391.28
2023-04-03T22:22:18.874Z,99392.47
2023-04-03T22:24:45.809Z,99383.81
2023-04-03T22:27:13.200Z,99391.41
2023-04-03T22:29:40.547Z,99382.09
2023-04-03T22:32:07.565Z,99378.94
2023-04-03T22:34:35.674Z,99385.34
2023-04-03T22:37:03.119Z,99389.66
2023-04-03T22:39:30.206Z,99384.47
2023-04-03T22:41:57.154Z,99386.09
2023-04-03T22:44:24.317Z,99386.44
2023-04-03T22:46:53.058Z,99387.63
2023-04-03T22:49:20.028Z,99379.38
2023-04-03T22:51:47.186Z,99388.41
2023-04-03T22:54:14.752Z,99386.75
2023-04-03T22:56:42.248Z,99383.25
2023-04-03T22:59:09.604Z,99377.25
2023-04-03T23:01:39.325Z,99372.72
2023-04-03T23:04:06.777Z,99385.78
2023-04-03T23:06:33.817Z,99385.78
2023-04-03T23:09:01.333Z,99381.66
2023-04-03T23:11:28.510Z,99379.34
2023-04-03T23:13:55.671Z,99383.69
2023-04-03T23:16:22.873Z,99381.66
2023-04-03T23:18:50.195Z,99382.28
2023-04-03T23:21:17.208Z,99377.19
2023-04-03T23:23:44.275Z,99379.03
2023-04-03T23:26:11.352Z,99371.84
2023-04-03T23:28:38.532Z,99365.66
2023-04-03T23:31:10.417Z,99375.97
2023-04-03T23:33:38.752Z,99364.47
2023-04-03T23:36:09.245Z,99369.22
2023-04-03T23:38:36.978Z,99368.41
2023-04-03T23:41:04.124Z,99369.66
2023-04-03T23:43:32.056Z,99381.41
2023-04-03T23:45:59.473Z,99369.66
2023-04-03T23:48:26.634Z,99379.38
2023-04-03T23:50:53.592Z,99377.91
2023-04-03T23:53:20.582Z,99377.91
2023-04-03T23:55:47.671Z,99380.38
2023-04-03T23:58:14.686Z,99370.31
